Time;durP1;ratioP1;P1;durP2;ratioP2;P2;SDS_P1;SDS_P2;PMS_P1;PMS_P2;Temp;Humidity;BMP_temperature;BMP_pressure;BME280_temperature;BME280_humidity;BME280_pressure;Samples;Min_cycle;Max_cycle;Signal;HPM_P1;HPM_P2
2021/07/04 00:01:02;;;;;;;72.08;50.28;;;;;;;19.88;88.99;99976.50;1806258;77;21283;-57
2021/07/04 00:03:29;;;;;;;61.83;44.83;;;;;;;19.85;89.14;99974.05;1812028;77;21510;-57
2021/07/04 00:05:55;;;;;;;104.27;78.80;;;;;;;19.85;89.25;99978.13;1809367;77;21643;-65
2021/07/04 00:08:25;;;;;;;50.98;39.05;;;;;;;19.84;89.36;99975.05;1815251;77;20988;-66
2021/07/04 00:11:02;;;;;;;49.00;40.52;;;;;;;19.81;89.50;99973.95;1796581;77;21082;-66
2021/07/04 00:13:29;;;;;;;52.88;40.23;;;;;;;19.78;89.63;99967.39;1794169;77;20959;-60
2021/07/04 00:15:55;;;;;;;77.80;58.02;;;;;;;19.74;89.85;99969.02;1801034;77;21161;-59
2021/07/04 00:18:24;;;;;;;66.07;49.35;;;;;;;19.74;89.96;99975.83;1783071;78;20982;-67
2021/07/04 00:20:51;;;;;;;60.88;47.95;;;;;;;19.72;90.15;99984.61;1805557;77;21068;-57
2021/07/04 00:23:17;;;;;;;47.70;37.00;;;;;;;19.68;90.33;99976.88;1810604;77;21402;-57
2021/07/04 00:25:44;;;;;;;43.38;30.43;;;;;;;19.65;90.37;99968.95;1806606;77;21418;-59
2021/07/04 00:28:11;;;;;;;27.70;17.73;;;;;;;19.62;90.53;99975.54;1812281;77;21703;-57
2021/07/04 00:30:38;;;;;;;27.20;19.62;;;;;;;19.59;90.87;99982.60;1812578;77;21000;-58
2021/07/04 00:33:05;;;;;;;99.92;79.35;;;;;;;19.57;91.12;99971.00;1807566;77;20933;-58
2021/07/04 00:35:33;;;;;;;78.67;56.25;;;;;;;19.53;91.46;99968.15;1808227;77;21051;-58
2021/07/04 00:38:00;;;;;;;62.62;48.33;;;;;;;19.49;91.81;99964.85;1812569;77;21007;-58
2021/07/04 00:40:28;;;;;;;70.80;51.45;;;;;;;19.46;92.08;99961.89;1790223;77;21076;-60
2021/07/04 00:42:55;;;;;;;46.08;33.80;;;;;;;19.45;92.18;99962.88;1796135;77;21022;-57
2021/07/04 00:45:24;;;;;;;41.83;32.67;;;;;;;19.46;92.38;99963.25;1802545;78;21392;-56
2021/07/04 00:47:51;;;;;;;28.20;18.55;;;;;;;19.46;92.46;99960.53;1791276;78;20953;-58
2021/07/04 00:50:20;;;;;;;38.00;28.15;;;;;;;19.46;92.73;99956.45;1811811;77;20913;-59
2021/07/04 00:52:50;;;;;;;33.08;22.60;;;;;;;19.44;92.84;99953.00;1799238;78;21533;-67
2021/07/04 00:55:17;;;;;;;36.35;21.23;;;;;;;19.42;93.00;99951.40;1776689;79;21028;-59
2021/07/04 00:57:46;;;;;;;17.45;13.80;;;;;;;19.39;93.41;99959.34;1798967;78;21449;-59
2021/07/04 01:00:17;;;;;;;15.10;10.95;;;;;;;19.37;93.49;99950.45;1796562;78;21016;-58
2021/07/04 01:02:43;;;;;;;14.90;11.12;;;;;;;19.36;93.67;99952.81;1819825;78;21006;-59
2021/07/04 01:05:14;;;;;;;15.90;10.93;;;;;;;19.32;93.85;99958.98;1797609;78;21063;-68
2021/07/04 01:07:41;;;;;;;14.15;11.35;;;;;;;19.29;94.00;99951.58;1797959;78;21537;-58
2021/07/04 01:10:11;;;;;;;13.55;10.10;;;;;;;19.24;94.09;99947.04;1762872;80;21048;-58
2021/07/04 01:12:38;;;;;;;16.97;11.43;;;;;;;19.18;94.26;99950.65;1733062;81;20978;-57
2021/07/04 01:15:06;;;;;;;21.85;11.30;;;;;;;19.12;94.61;99941.67;1733413;81;21046;-57
2021/07/04 01:17:34;;;;;;;16.97;11.68;;;;;;;19.09;94.84;99941.89;1724476;81;21779;-57
2021/07/04 01:20:00;;;;;;;15.35;11.48;;;;;;;19.05;95.18;99941.80;1796873;78;21581;-58
2021/07/04 01:22:30;;;;;;;16.35;11.53;;;;;;;19.02;95.45;99939.34;1798739;78;21476;-68
2021/07/04 01:24:57;;;;;;;27.48;12.93;;;;;;;19.02;95.77;99939.34;1801169;78;20914;-57
2021/07/04 01:27:24;;;;;;;17.50;11.90;;;;;;;19.01;95.77;99937.61;1800522;78;21314;-57
2021/07/04 01:29:50;;;;;;;15.53;12.20;;;;;;;19.00;95.80;99934.53;1763130;80;21085;-57
2021/07/04 01:32:17;;;;;;;18.02;11.50;;;;;;;18.96;96.05;99938.47;1747531;80;21601;-57
2021/07/04 01:34:44;;;;;;;17.75;11.97;;;;;;;18.92;96.30;99937.00;1750399;80;21068;-66
2021/07/04 01:37:11;;;;;;;18.32;12.20;;;;;;;18.90;96.55;99931.69;1748130;80;21557;-58
2021/07/04 01:39:37;;;;;;;16.75;11.65;;;;;;;18.87;96.73;99937.38;1730589;82;21523;-66
2021/07/04 01:42:04;;;;;;;14.93;11.65;;;;;;;18.85;96.98;99923.91;1731591;80;21884;-58
2021/07/04 01:44:30;;;;;;;18.00;13.80;;;;;;;18.83;97.28;99939.98;1776701;79;20913;-58
2021/07/04 01:46:57;;;;;;;18.73;13.08;;;;;;;18.81;97.50;99940.10;1763769;79;20938;-58
2021/07/04 01:49:26;;;;;;;19.00;12.37;;;;;;;18.78;97.81;99943.08;1749635;80;21106;-66
2021/07/04 01:51:53;;;;;;;22.60;15.70;;;;;;;18.75;98.04;99943.33;1738906;80;21609;-58
2021/07/04 01:54:22;;;;;;;32.95;24.43;;;;;;;18.73;98.26;99939.88;1774865;79;21427;-64
2021/07/04 01:56:48;;;;;;;25.32;16.37;;;;;;;18.73;98.62;99950.23;1757662;79;20949;-65
2021/07/04 01:59:15;;;;;;;18.25;13.15;;;;;;;18.72;98.64;99936.80;1763536;79;21045;-66
2021/07/04 02:01:52;;;;;;;21.35;12.30;;;;;;;18.73;98.87;99939.88;1743783;80;20920;-66
2021/07/04 02:04:20;;;;;;;14.80;11.38;;;;;;;18.74;98.80;99940.25;1754897;79;21040;-66
2021/07/04 02:06:48;;;;;;;17.12;11.90;;;;;;;18.69;98.91;99940.63;1739010;80;21759;-66
2021/07/04 02:09:16;;;;;;;14.87;10.75;;;;;;;18.68;99.05;99932.59;1792134;78;21463;-66
2021/07/04 02:11:45;;;;;;;18.10;11.70;;;;;;;18.66;99.34;99940.00;1816256;77;21572;-64
2021/07/04 02:14:12;;;;;;;15.83;12.00;;;;;;;18.65;99.44;99944.58;1817186;77;20920;-65
2021/07/04 02:16:40;;;;;;;17.20;11.78;;;;;;;18.65;99.58;99940.98;1804952;77;21058;-65
2021/07/04 02:19:09;;;;;;;16.05;12.28;;;;;;;18.65;99.67;99936.92;1776296;77;21521;-65
2021/07/04 02:21:39;;;;;;;21.97;12.25;;;;;;;18.66;99.79;99933.21;1812926;77;21429;-65
2021/07/04 02:24:05;;;;;;;21.93;12.35;;;;;;;18.68;99.73;99931.23;1809391;77;21360;-66
2021/07/04 02:26:35;;;;;;;20.48;12.53;;;;;;;18.69;99.60;99931.63;1810721;77;20980;-66
2021/07/04 02:29:04;;;;;;;19.42;11.78;;;;;;;18.71;99.53;99929.65;1815055;77;20904;-66
2021/07/04 02:31:32;;;;;;;16.55;12.30;;;;;;;18.73;99.36;99926.31;1810945;77;21363;-66
2021/07/04 02:33:59;;;;;;;23.02;11.70;;;;;;;18.74;99.22;99924.81;1817834;77;22252;-66
2021/07/04 02:36:28;;;;;;;18.07;12.05;;;;;;;18.73;98.96;99916.81;1814946;77;20924;-64
2021/07/04 02:38:58;;;;;;;19.27;12.00;;;;;;;18.69;98.99;99920.77;1777559;79;20891;-66
2021/07/04 02:41:24;;;;;;;17.67;12.07;;;;;;;18.68;99.03;99927.16;1741836;80;21032;-68
2021/07/04 02:43:51;;;;;;;18.52;12.20;;;;;;;18.61;99.02;99919.53;1731605;82;22222;-67
2021/07/04 02:46:21;;;;;;;18.52;11.93;;;;;;;18.57;99.34;99926.72;1722321;80;21133;-63
2021/07/04 02:48:49;;;;;;;19.62;12.98;;;;;;;18.51;99.42;99924.00;1710979;82;22022;-66
2021/07/04 02:51:17;;;;;;;19.27;13.48;;;;;;;18.48;99.74;99929.69;1758773;80;21057;-68
2021/07/04 02:53:44;;;;;;;20.85;13.08;;;;;;;18.42;100.00;99930.16;1766151;80;21136;-63
2021/07/04 02:56:13;;;;;;;19.57;14.03;;;;;;;18.38;100.00;99932.77;1755025;80;21384;-65
2021/07/04 02:58:40;;;;;;;19.07;15.08;;;;;;;18.33;100.00;99939.43;1760127;80;21010;-65
2021/07/04 03:01:07;;;;;;;15.50;12.37;;;;;;;18.30;100.00;99927.47;1762233;80;21148;-67
2021/07/04 03:03:33;;;;;;;20.55;13.30;;;;;;;18.29;100.00;99923.52;1739256;80;21435;-64
2021/07/04 03:06:00;;;;;;;17.77;12.88;;;;;;;18.29;100.00;99920.33;1763728;80;21467;-67
2021/07/04 03:08:27;;;;;;;18.25;13.43;;;;;;;18.30;100.00;99926.59;1754255;80;21102;-65
2021/07/04 03:10:56;;;;;;;18.65;12.85;;;;;;;18.30;100.00;99927.47;1763485;80;20902;-66
2021/07/04 03:13:24;;;;;;;20.37;13.53;;;;;;;18.35;100.00;99927.59;1758712;80;21048;-65
2021/07/04 03:15:52;;;;;;;16.62;11.78;;;;;;;18.42;100.00;99938.30;1734539;80;21120;-65
2021/07/04 03:18:19;;;;;;;18.55;13.80;;;;;;;18.53;100.00;99927.45;1751028;80;21031;-63
2021/07/04 03:20:47;;;;;;;18.57;13.62;;;;;;;18.64;100.00;99926.57;1763904;80;21454;-65
2021/07/04 03:23:13;;;;;;;23.60;15.50;;;;;;;18.75;100.00;99925.69;1757813;80;21438;-66
2021/07/04 03:25:40;;;;;;;23.90;17.25;;;;;;;18.85;100.00;99923.91;1738986;80;20948;-66
2021/07/04 03:28:09;;;;;;;26.23;20.62;;;;;;;18.98;100.00;99918.83;1758526;80;21862;-67
2021/07/04 03:30:37;;;;;;;32.63;24.43;;;;;;;19.11;100.00;99920.89;1743969;80;21479;-64
2021/07/04 03:33:03;;;;;;;17.00;14.00;;;;;;;19.26;98.89;99915.16;1717444;82;21862;-63
2021/07/04 03:35:31;;;;;;;16.55;13.35;;;;;;;19.40;98.21;99923.01;1719166;80;20993;-65
2021/07/04 03:38:00;;;;;;;18.90;13.32;;;;;;;19.53;97.34;99924.66;1734088;80;21112;-64
2021/07/04 03:40:28;;;;;;;18.62;13.68;;;;;;;19.65;96.64;99917.30;1751554;80;21471;-64
2021/07/04 03:42:58;;;;;;;22.35;15.08;;;;;;;19.77;95.90;99918.96;1753840;79;21454;-65
2021/07/04 03:45:27;;;;;;;17.30;13.53;;;;;;;19.90;95.14;99924.19;1781236;79;21065;-65
2021/07/04 03:47:54;;;;;;;26.48;21.20;;;;;;;20.05;93.84;99939.69;1770033;79;20953;-66
2021/07/04 03:50:22;;;;;;;39.10;24.77;;;;;;;20.18;92.87;99934.89;1775655;79;21545;-56
2021/07/04 03:52:53;;;;;;;27.17;19.48;;;;;;;20.28;91.40;99932.70;1771550;79;20913;-66
2021/07/04 03:55:20;;;;;;;21.15;15.30;;;;;;;20.34;91.18;99928.09;1754838;79;20992;-66
2021/07/04 03:57:47;;;;;;;17.87;13.98;;;;;;;20.43;90.61;99923.65;1779155;79;21103;-64
2021/07/04 04:00:17;;;;;;;42.80;31.77;;;;;;;20.52;90.06;99921.48;1773722;79;20989;-65
2021/07/04 04:02:43;;;;;;;32.35;24.82;;;;;;;20.64;89.78;99933.13;1771103;79;21017;-65
2021/07/04 04:05:13;;;;;;;36.45;29.40;;;;;;;20.78;89.25;99922.33;1778110;79;21068;-64
2021/07/04 04:07:43;;;;;;;45.73;36.13;;;;;;;20.92;87.87;99921.60;1779813;79;20938;-64
2021/07/04 04:10:11;;;;;;;35.00;25.52;;;;;;;20.99;86.61;99934.48;1770270;79;21538;-65
2021/07/04 04:12:38;;;;;;;32.98;26.87;;;;;;;21.06;86.30;99938.88;1770521;79;21627;-65
2021/07/04 04:15:08;;;;;;;23.50;20.52;;;;;;;21.13;85.94;99937.81;1760471;80;21575;-66
2021/07/04 04:17:35;;;;;;;26.57;21.62;;;;;;;21.16;85.74;99932.07;1745007;79;20956;-65
2021/07/04 04:20:04;;;;;;;24.43;19.62;;;;;;;21.20;85.45;99925.84;1750476;80;20965;-65
2021/07/04 04:22:32;;;;;;;26.25;17.35;;;;;;;21.22;84.61;99941.55;1749028;79;21101;-66
2021/07/04 04:24:59;;;;;;;20.45;14.80;;;;;;;21.21;85.19;99937.95;1757907;80;21066;-64
2021/07/04 04:27:25;;;;;;;31.75;23.05;;;;;;;21.29;84.92;99941.33;1774337;79;20957;-65
2021/07/04 04:29:52;;;;;;;26.50;16.48;;;;;;;21.36;84.81;99933.44;1752660;79;20965;-65
2021/07/04 04:32:19;;;;;;;18.57;15.85;;;;;;;21.45;84.35;99942.98;1776560;79;21032;-66
2021/07/04 04:34:47;;;;;;;23.90;17.65;;;;;;;21.49;84.02;99948.14;1771963;79;21096;-64
2021/07/04 04:37:14;;;;;;;33.50;25.77;;;;;;;21.51;83.83;99948.86;1763650;79;20960;-65
2021/07/04 04:39:40;;;;;;;56.08;45.30;;;;;;;21.52;83.81;99945.13;1774224;79;20981;-64
2021/07/04 04:42:08;;;;;;;48.92;37.83;;;;;;;21.54;83.36;99949.44;1775816;79;21009;-63
2021/07/04 04:44:38;;;;;;;32.42;25.05;;;;;;;21.54;83.47;99943.11;1792300;77;20926;-63
2021/07/04 04:47:06;;;;;;;23.50;15.98;;;;;;;21.59;83.33;99946.28;1800103;77;21059;-64
2021/07/04 04:49:33;;;;;;;19.57;15.63;;;;;;;21.71;82.87;99947.02;1806756;77;20994;-65
2021/07/04 04:52:03;;;;;;;19.48;14.30;;;;;;;21.78;82.64;99940.48;1804815;77;20972;-64
2021/07/04 04:54:30;;;;;;;22.00;17.45;;;;;;;21.87;82.18;99934.97;1803268;77;20960;-65
2021/07/04 04:56:57;;;;;;;26.50;20.60;;;;;;;21.94;81.57;99933.88;1801700;78;21009;-66
2021/07/04 04:59:23;;;;;;;19.75;14.60;;;;;;;22.06;81.37;99924.17;1805922;78;21380;-67
2021/07/04 05:01:49;;;;;;;18.40;14.55;;;;;;;22.16;80.65;99918.16;1805946;77;21565;-65
2021/07/04 05:04:16;;;;;;;21.90;15.28;;;;;;;22.23;80.06;99916.56;1806416;77;21119;-65
2021/07/04 05:06:42;;;;;;;18.98;14.28;;;;;;;22.28;80.13;99907.41;1814085;77;21528;-65
2021/07/04 05:09:09;;;;;;;18.85;14.35;;;;;;;22.40;79.90;99913.53;1803387;79;21457;-66
2021/07/04 05:11:35;;;;;;;29.32;21.33;;;;;;;22.49;79.19;99902.24;1804973;77;21783;-65
2021/07/04 05:14:02;;;;;;;20.95;14.50;;;;;;;22.51;78.86;99911.14;1806065;77;20993;-63
2021/07/04 05:16:29;;;;;;;19.35;13.62;;;;;;;22.55;79.33;99897.53;1805894;77;21326;-64
2021/07/04 05:18:55;;;;;;;19.60;15.25;;;;;;;22.67;78.87;99892.70;1809770;77;21824;-67
2021/07/04 05:21:22;;;;;;;37.78;25.97;;;;;;;22.78;78.29;99894.36;1804285;77;20988;-66
2021/07/04 05:23:49;;;;;;;32.90;25.57;;;;;;;22.83;78.42;99893.39;1805893;77;21705;-65
2021/07/04 05:26:19;;;;;;;19.27;14.73;;;;;;;22.94;77.98;99895.55;1805539;77;20922;-64
2021/07/04 05:28:46;;;;;;;18.77;14.45;;;;;;;23.00;77.59;99893.56;1808099;77;21000;-66
2021/07/04 05:31:13;;;;;;;45.58;39.70;;;;;;;23.10;77.35;99895.72;1812398;77;21083;-65
2021/07/04 05:33:40;;;;;;;44.00;37.73;;;;;;;23.21;76.61;99900.59;1794699;77;20972;-64
2021/07/04 05:36:07;;;;;;;40.43;29.18;;;;;;;23.28;76.34;99903.06;1805335;78;21678;-65
2021/07/04 05:38:35;;;;;;;24.55;19.35;;;;;;;23.36;76.30;99904.52;1792519;77;20944;-66
2021/07/04 05:41:01;;;;;;;59.23;43.52;;;;;;;23.49;76.03;99901.87;1810289;77;21447;-65
2021/07/04 05:43:28;;;;;;;54.63;41.70;;;;;;;23.64;74.84;99908.49;1799460;77;20922;-66
2021/07/04 05:45:54;;;;;;;31.42;24.27;;;;;;;23.75;74.94;99916.42;1783393;78;20976;-65
2021/07/04 05:48:21;;;;;;;25.80;21.73;;;;;;;23.90;74.84;99922.69;1797471;78;21030;-65
2021/07/04 05:50:48;;;;;;;41.80;27.95;;;;;;;24.06;73.66;99932.06;1784491;79;21570;-66
2021/07/04 05:53:16;;;;;;;25.60;18.30;;;;;;;24.14;73.52;99923.89;1792975;79;20920;-65
2021/07/04 05:55:43;;;;;;;19.48;15.13;;;;;;;24.21;73.29;99925.47;1790148;79;21023;-65
2021/07/04 05:58:10;;;;;;;39.55;29.18;;;;;;;24.31;73.16;99928.43;1789207;78;21489;-66
2021/07/04 06:00:36;;;;;;;24.90;18.60;;;;;;;24.41;72.97;99927.44;1785520;79;21052;-65
2021/07/04 06:03:03;;;;;;;43.58;37.25;;;;;;;24.42;72.29;99927.28;1788217;78;20896;-66
2021/07/04 06:05:29;;;;;;;60.60;49.45;;;;;;;24.41;72.24;99933.78;1787821;79;21117;-65
2021/07/04 06:07:56;;;;;;;37.88;31.45;;;;;;;24.31;72.18;99928.43;1794397;79;21023;-65
2021/07/04 06:10:22;;;;;;;24.87;17.40;;;;;;;24.28;73.54;99927.39;1790577;79;21445;-65
2021/07/04 06:12:49;;;;;;;19.20;13.95;;;;;;;24.39;73.75;99930.36;1782283;79;21095;-65
2021/07/04 06:15:16;;;;;;;19.98;14.70;;;;;;;24.51;73.61;99930.92;1786901;79;21018;-65
2021/07/04 06:17:42;;;;;;;23.00;19.40;;;;;;;24.64;73.10;99939.17;1750469;80;21445;-66
2021/07/04 06:20:11;;;;;;;23.10;15.05;;;;;;;24.71;72.87;99943.83;1717618;82;21568;-66
2021/07/04 06:22:37;;;;;;;18.52;13.88;;;;;;;24.80;72.33;99944.75;1734174;80;21501;-65
2021/07/04 06:25:06;;;;;;;19.37;14.20;;;;;;;24.85;71.68;99935.50;1732591;80;21389;-65
2021/07/04 06:27:33;;;;;;;22.52;17.20;;;;;;;24.81;71.63;99934.13;1731278;82;21051;-66
2021/07/04 06:30:00;;;;;;;48.00;39.42;;;;;;;24.80;71.88;99943.38;1734158;80;21127;-65
2021/07/04 06:32:26;;;;;;;40.73;32.50;;;;;;;24.79;72.21;99945.77;1727170;81;21024;-65
2021/07/04 06:34:53;;;;;;;62.60;53.95;;;;;;;24.84;72.10;99939.27;1714509;82;21415;-64
2021/07/04 06:37:19;;;;;;;24.65;19.70;;;;;;;24.94;71.89;99942.39;1729155;81;21478;-66
2021/07/04 06:39:46;;;;;;;22.67;16.48;;;;;;;24.99;71.28;99946.86;1727919;82;21008;-66
2021/07/04 06:42:12;;;;;;;44.95;35.33;;;;;;;25.00;71.54;99949.44;1722679;82;21055;-64
2021/07/04 06:44:38;;;;;;;27.02;19.65;;;;;;;25.06;71.51;99957.48;1724030;82;21452;-66
2021/07/04 06:47:05;;;;;;;22.65;15.70;;;;;;;25.13;71.56;99955.81;1741058;81;21734;-66
2021/07/04 06:49:32;;;;;;;16.93;13.20;;;;;;;25.19;70.87;99961.11;1795397;79;21062;-65
2021/07/04 06:51:59;;;;;;;15.65;12.73;;;;;;;25.21;70.38;99952.23;1804628;77;21004;-65
2021/07/04 06:54:25;;;;;;;21.15;14.23;;;;;;;25.24;70.73;99949.64;1806626;77;22234;-65
2021/07/04 06:56:51;;;;;;;17.12;13.00;;;;;;;25.28;70.62;99940.04;1801379;77;20974;-66
2021/07/04 06:59:18;;;;;;;20.60;13.05;;;;;;;25.34;70.63;99942.63;1806961;77;21746;-66
2021/07/04 07:01:44;;;;;;;19.82;13.10;;;;;;;25.44;70.67;99940.05;1801341;77;21496;-63
2021/07/04 07:04:13;;;;;;;16.32;13.28;;;;;;;25.52;70.12;99933.75;1797253;78;20970;-65
2021/07/04 07:06:40;;;;;;;17.50;12.88;;;;;;;25.58;69.91;99940.45;1805584;78;20936;-65
2021/07/04 07:09:06;;;;;;;21.37;14.38;;;;;;;25.63;69.92;99941.27;1800314;77;22863;-65
2021/07/04 07:11:33;;;;;;;19.95;13.70;;;;;;;25.71;70.00;99939.39;1795135;77;21447;-64
2021/07/04 07:13:59;;;;;;;23.85;15.43;;;;;;;25.78;69.94;99938.19;1795564;77;21050;-65
2021/07/04 07:16:26;;;;;;;19.30;15.10;;;;;;;25.89;69.67;99939.72;1799560;77;21038;-65
2021/07/04 07:18:54;;;;;;;20.50;15.00;;;;;;;25.99;69.22;99950.02;1806454;77;21449;-63
2021/07/04 07:21:21;;;;;;;18.73;14.13;;;;;;;26.09;68.89;99953.07;1801042;77;21039;-64
2021/07/04 07:23:47;;;;;;;19.90;15.32;;;;;;;26.16;68.49;99948.58;1800861;77;20975;-63
2021/07/04 07:26:14;;;;;;;17.80;13.78;;;;;;;26.26;67.65;99949.28;1801525;77;21083;-67
2021/07/04 07:28:41;;;;;;;21.55;14.18;;;;;;;26.25;66.98;99957.19;1795646;77;20916;-67
2021/07/04 07:31:09;;;;;;;22.48;14.05;;;;;;;26.23;67.65;99956.52;1797577;77;21513;-65
2021/07/04 07:33:36;;;;;;;16.97;13.03;;;;;;;26.29;67.47;99954.92;1797548;77;20927;-67
2021/07/04 07:36:04;;;;;;;20.77;13.30;;;;;;;26.38;67.28;99944.77;1782569;78;20907;-58
2021/07/04 07:38:31;;;;;;;20.52;14.05;;;;;;;26.46;67.05;99946.97;1803842;77;21444;-58
2021/07/04 07:40:58;;;;;;;19.55;13.15;;;;;;;26.49;66.78;99948.52;1796931;77;21300;-59
2021/07/04 07:43:24;;;;;;;18.17;12.43;;;;;;;26.55;66.46;99947.80;1802049;77;20988;-58
2021/07/04 07:45:51;;;;;;;19.35;13.62;;;;;;;26.57;65.64;99948.48;1791427;78;20897;-59
2021/07/04 07:48:17;;;;;;;18.50;12.78;;;;;;;26.49;65.54;99938.91;1782315;78;20971;-59
2021/07/04 07:50:55;;;;;;;14.50;12.45;;;;;;;26.36;66.14;99939.47;1786988;79;21663;-58
2021/07/04 07:53:22;;;;;;;18.40;12.73;;;;;;;26.34;66.13;99933.80;1780727;78;20986;-58
2021/07/04 07:55:50;;;;;;;23.18;12.18;;;;;;;26.33;66.16;99944.45;1787812;78;20976;-58
2021/07/04 07:58:17;;;;;;;21.40;11.65;;;;;;;26.36;66.28;99942.72;1770658;78;21559;-66
2021/07/04 08:00:46;;;;;;;22.95;14.53;;;;;;;26.43;66.35;99945.12;1790884;78;21399;-66
2021/07/04 08:03:14;;;;;;;25.80;19.90;;;;;;;26.46;66.05;99933.23;1783622;78;21484;-66
2021/07/04 08:05:40;;;;;;;64.00;55.03;;;;;;;26.46;66.01;99937.35;1783928;79;21677;-66
2021/07/04 08:08:07;;;;;;;34.98;26.62;;;;;;;26.51;65.27;99938.20;1785010;79;22349;-67
2021/07/04 08:10:34;;;;;;;19.35;13.48;;;;;;;26.54;64.78;99931.51;1746280;81;21035;-67
2021/07/04 08:13:01;;;;;;;18.45;14.45;;;;;;;26.60;63.81;99930.78;1726154;81;21115;-63
2021/07/04 08:15:28;;;;;;;36.95;32.30;;;;;;;26.66;63.13;99918.22;1729045;81;21139;-67
2021/07/04 08:17:54;;;;;;;33.40;27.87;;;;;;;26.71;63.12;99920.74;1732112;80;21492;-67
2021/07/04 08:20:22;;;;;;;25.20;21.37;;;;;;;26.75;62.27;99915.75;1732480;82;20965;-58
2021/07/04 08:22:48;;;;;;;33.98;28.70;;;;;;;26.72;62.61;99916.95;1730088;81;21190;-58
2021/07/04 08:25:15;;;;;;;34.88;28.17;;;;;;;26.76;61.68;99915.25;1729550;81;21531;-58
2021/07/04 08:27:43;;;;;;;21.48;15.63;;;;;;;26.76;61.20;99907.00;1730328;81;21072;-58
2021/07/04 08:30:12;;;;;;;24.23;15.58;;;;;;;26.69;60.90;99920.61;1733164;82;20948;-66
2021/07/04 08:32:39;;;;;;;13.70;10.45;;;;;;;26.68;60.97;99907.90;1725645;82;21521;-58
2021/07/04 08:35:06;;;;;;;15.30;5.80;;;;;;;26.77;61.23;99904.05;1726369;82;21011;-57
2021/07/04 08:37:33;;;;;;;10.30;6.10;;;;;;;26.87;58.24;99926.73;1730041;82;21067;-57
2021/07/04 08:40:00;;;;;;;23.00;6.30;;;;;;;26.93;57.05;99919.63;1729833;82;21464;-57
2021/07/04 08:42:27;;;;;;;17.15;7.10;;;;;;;26.97;56.89;99921.50;1729912;82;21439;-59
2021/07/04 08:44:54;;;;;;;12.00;9.10;;;;;;;26.95;56.19;99913.95;1731101;82;21521;-59
2021/07/04 08:47:22;;;;;;;13.45;8.80;;;;;;;26.96;56.84;99917.87;1771603;79;21287;-59
2021/07/04 08:49:50;;;;;;;41.30;27.62;;;;;;;26.97;55.61;99926.50;1755859;80;21007;-58
2021/07/04 08:52:17;;;;;;;21.82;15.63;;;;;;;26.94;55.23;99919.12;1771034;79;21735;-58
2021/07/04 08:54:43;;;;;;;13.62;6.95;;;;;;;26.95;55.57;99915.33;1745792;80;21036;-65
2021/07/04 08:57:11;;;;;;;10.18;6.87;;;;;;;26.97;56.72;99910.00;1751245;80;20976;-68
2021/07/04 08:59:39;;;;;;;22.60;17.15;;;;;;;27.02;56.94;99908.05;1748453;80;21372;-67
2021/07/04 09:02:10;;;;;;;28.07;20.45;;;;;;;27.09;55.51;99904.06;1810988;77;21075;-67
2021/07/04 09:04:35;;;;;;;39.50;30.60;;;;;;;27.14;55.23;99900.23;1806500;77;21085;-67
2021/07/04 09:07:02;;;;;;;18.60;13.78;;;;;;;27.18;54.25;99911.20;1812231;78;20935;-67
2021/07/04 09:09:31;;;;;;;48.68;38.88;;;;;;;27.24;53.98;99900.86;1812913;77;20861;-68
2021/07/04 09:12:10;;;;;;;36.13;30.77;;;;;;;27.23;52.50;99908.78;1812216;77;21030;-69
2021/07/04 09:14:45;;;;;;;14.50;10.28;;;;;;;27.20;53.81;99908.28;1815512;77;20947;-68
2021/07/04 09:17:14;;;;;;;11.43;6.90;;;;;;;27.27;53.10;99905.98;1826686;77;21604;-68
2021/07/04 09:19:54;;;;;;;11.40;6.42;;;;;;;27.34;51.78;99904.73;1821624;77;21425;-68
2021/07/04 09:22:40;;;;;;;13.28;8.63;;;;;;;27.35;52.14;99931.21;1807646;77;21465;-68
2021/07/04 09:25:24;;;;;;;14.87;7.60;;;;;;;27.31;51.72;99917.48;1814480;77;20958;-68
2021/07/04 09:28:13;;;;;;;13.72;6.92;;;;;;;27.24;51.19;99909.62;1814312;77;21844;-67
2021/07/04 09:30:52;;;;;;;11.12;8.23;;;;;;;27.22;51.98;99897.94;1808286;77;21077;-68
2021/07/04 09:33:35;;;;;;;9.63;8.50;;;;;;;27.33;50.89;99914.03;1810424;77;21018;-69
2021/07/04 09:36:05;;;;;;;11.38;7.83;;;;;;;27.34;50.34;99921.25;1740526;80;21040;-69
2021/07/04 09:38:34;;;;;;;16.93;12.55;;;;;;;27.37;51.50;99907.11;1743764;80;21119;-68
2021/07/04 09:41:02;;;;;;;29.42;19.27;;;;;;;27.45;50.96;99900.15;1802815;77;21058;-67
2021/07/04 09:43:31;;;;;;;18.25;8.60;;;;;;;27.51;51.19;99904.58;1806281;77;21110;-70
2021/07/04 09:46:05;;;;;;;15.50;7.15;;;;;;;27.55;50.56;99902.68;1818931;77;21467;-69
2021/07/04 09:48:43;;;;;;;12.50;7.22;;;;;;;27.60;50.37;99891.12;1827014;77;21474;-68
2021/07/04 09:51:23;;;;;;;15.80;8.63;;;;;;;27.65;51.02;99888.66;1823112;77;20915;-67
2021/07/04 09:53:57;;;;;;;17.37;7.80;;;;;;;27.70;50.01;99887.56;1815751;77;20988;-69
2021/07/04 09:56:29;;;;;;;12.03;6.85;;;;;;;27.69;49.39;99892.73;1825522;77;21084;-66
2021/07/04 09:59:01;;;;;;;13.03;6.58;;;;;;;27.70;49.40;99898.58;1820881;77;21010;-69
2021/07/04 10:01:45;;;;;;;23.67;18.75;;;;;;;27.71;48.19;99878.80;1785650;78;22040;-69
2021/07/04 10:04:30;;;;;;;19.60;9.20;;;;;;;27.72;47.92;99877.21;1784488;78;20969;-68
2021/07/04 10:06:59;;;;;;;23.45;11.73;;;;;;;27.77;48.60;99878.58;1757067;80;21352;-69
2021/07/04 10:09:26;;;;;;;14.58;8.30;;;;;;;27.78;48.99;99889.92;1782289;78;21592;-70
2021/07/04 10:11:53;;;;;;;17.57;11.00;;;;;;;27.85;48.44;99881.23;1823119;77;21359;-69
2021/07/04 10:14:19;;;;;;;13.80;7.28;;;;;;;27.92;47.21;99884.92;1825176;77;20905;-69
2021/07/04 10:16:48;;;;;;;13.62;9.78;;;;;;;27.96;46.69;99884.03;1815143;77;20883;-69
2021/07/04 10:19:20;;;;;;;11.97;6.30;;;;;;;27.88;46.52;99870.70;1819567;77;20919;-69
2021/07/04 10:21:50;;;;;;;10.98;6.00;;;;;;;27.78;47.25;99876.98;1826498;77;21031;-68
2021/07/04 10:24:16;;;;;;;27.17;21.48;;;;;;;27.77;48.38;99889.59;1814518;77;20971;-70
2021/07/04 10:26:45;;;;;;;27.25;22.35;;;;;;;27.74;48.39;99873.78;1817817;77;21733;-70
2021/07/04 10:29:11;;;;;;;13.98;7.58;;;;;;;27.81;49.13;99882.66;1818077;77;21283;-72
2021/07/04 10:31:38;;;;;;;12.10;7.00;;;;;;;27.86;49.55;99859.53;1824829;77;20967;-70
2021/07/04 10:34:11;;;;;;;23.87;17.40;;;;;;;27.91;49.34;99883.22;1822509;77;21068;-70
2021/07/04 10:36:58;;;;;;;;;;;;;;;27.96;48.79;99865.59;1825335;77;20963;-69
2021/07/04 10:39:26;;;;;;;7.03;5.50;;;;;;;27.99;48.28;99872.13;1818217;77;20161;-68
2021/07/04 10:41:58;;;;;;;19.98;13.03;;;;;;;27.96;48.48;99872.48;1826651;77;20984;-68
2021/07/04 10:44:42;;;;;;;23.55;15.43;;;;;;;27.95;48.91;99867.18;1825154;77;21054;-67
2021/07/04 10:47:24;;;;;;;13.98;10.45;;;;;;;27.96;49.14;99866.97;1779214;77;21600;-67
2021/07/04 10:50:08;;;;;;;17.85;8.03;;;;;;;28.05;49.42;99872.41;1769771;79;20933;-68
2021/07/04 10:52:38;;;;;;;;;;;;;;;28.07;48.77;99875.83;1777786;79;21037;-68
2021/07/04 10:55:09;;;;;;;9.83;5.87;;;;;;;28.01;47.70;99882.44;1772578;79;20132;-66
2021/07/04 10:57:55;;;;;;;11.88;6.20;;;;;;;27.88;48.87;99886.36;1777786;79;21330;-68
2021/07/04 11:00:39;;;;;;;13.05;9.23;;;;;;;27.84;49.69;99869.34;1771778;79;21104;-67
2021/07/04 11:03:13;;;;;;;13.10;6.05;;;;;;;27.89;49.51;99875.67;1772232;79;21639;-70
2021/07/04 11:05:43;;;;;;;20.82;13.30;;;;;;;27.88;50.34;99869.83;1750231;79;21016;-67
2021/07/04 11:08:20;;;;;;;18.70;9.73;;;;;;;27.92;50.07;99875.83;1768250;79;20929;-68
2021/07/04 11:10:59;;;;;;;10.78;7.30;;;;;;;27.95;49.57;99855.63;1768923;79;21012;-69
2021/07/04 11:13:38;;;;;;;7.10;6.28;;;;;;;27.97;50.18;99859.08;1773890;79;21410;-66
2021/07/04 11:16:13;;;;;;;14.55;8.83;;;;;;;27.98;50.61;99853.02;1771139;79;20939;-68
2021/07/04 11:18:46;;;;;;;8.55;5.08;;;;;;;27.93;50.33;99852.20;1776484;79;20893;-67
2021/07/04 11:21:19;;;;;;;14.23;5.93;;;;;;;27.91;50.56;99866.69;1767860;79;21109;-68
2021/07/04 11:23:45;;;;;;;11.90;5.60;;;;;;;27.95;50.58;99843.23;1774902;79;20993;-67
2021/07/04 11:26:16;;;;;;;7.17;4.75;;;;;;;28.02;50.80;99849.70;1772343;79;21083;-67